Pendleton, Oregon
Current Conditions -  °F | °C
As of 4:53 PM on Tuesday 25 Nov 2014 (Local Time) from KPDT Reporting Station
Overcast Overcast  
Wind Chill: 54°   Ceiling: 6000
Heat Index: 54°   Visibility: 10mi
Dew Point: 47°   Wind: 10mph
Humidity: 77%   Direction: 260°W
Pressure: 30.18"   Gusts: NA
Location:  45.67°N, 118.78°W
Report Text: KPDT 260053Z 26009KT 10SM SCT040 BKN060 OVC075 12/08 A3018 RMK AO2 SLP215 T01220083
Loading
Personal Weather Stations






























Interactive Weather Map New forecast layout! Learn more

10-Day Weather Forecast

Advertisements
Track Severe Weather on mobile